sensor_id;sensor_type;location;lat;lon;timestamp;P1;durP1;ratioP1;P2;durP2;ratioP2
18162;SDS011;9206;50.994;4.538;2023-05-10T00:01:46;16.80;;;9.13;;
18162;SDS011;9206;50.994;4.538;2023-05-10T00:04:55;9.67;;;8.77;;
18162;SDS011;9206;50.994;4.538;2023-05-10T00:07:42;9.23;;;8.40;;
18162;SDS011;9206;50.994;4.538;2023-05-10T00:17:21;13.37;;;8.33;;
18162;SDS011;9206;50.994;4.538;2023-05-10T00:29:49;17.57;;;8.30;;
18162;SDS011;9206;50.994;4.538;2023-05-10T00:32:39;13.03;;;7.77;;
18162;SDS011;9206;50.994;4.538;2023-05-10T00:35:29;15.73;;;8.70;;
18162;SDS011;9206;50.994;4.538;2023-05-10T00:38:24;10.67;;;8.27;;
18162;SDS011;9206;50.994;4.538;2023-05-10T00:41:12;19.23;;;9.20;;
18162;SDS011;9206;50.994;4.538;2023-05-10T00:43:59;11.60;;;8.70;;
18162;SDS011;9206;50.994;4.538;2023-05-10T00:47:00;9.40;;;8.37;;
18162;SDS011;9206;50.994;4.538;2023-05-10T00:50:01;14.53;;;9.93;;
18162;SDS011;9206;50.994;4.538;2023-05-10T01:04:25;13.47;;;9.40;;
18162;SDS011;9206;50.994;4.538;2023-05-10T01:11:03;14.67;;;10.13;;
18162;SDS011;9206;50.994;4.538;2023-05-10T01:14:02;13.23;;;10.17;;
18162;SDS011;9206;50.994;4.538;2023-05-10T01:16:53;18.20;;;10.00;;
18162;SDS011;9206;50.994;4.538;2023-05-10T01:22:43;15.87;;;11.10;;
18162;SDS011;9206;50.994;4.538;2023-05-10T01:29:14;15.77;;;10.77;;
18162;SDS011;9206;50.994;4.538;2023-05-10T01:32:59;14.07;;;10.60;;
18162;SDS011;9206;50.994;4.538;2023-05-10T01:36:04;17.77;;;11.20;;
18162;SDS011;9206;50.994;4.538;2023-05-10T01:42:39;16.20;;;10.63;;
18162;SDS011;9206;50.994;4.538;2023-05-10T01:45:46;15.27;;;11.53;;
18162;SDS011;9206;50.994;4.538;2023-05-10T01:48:46;19.70;;;11.33;;
18162;SDS011;9206;50.994;4.538;2023-05-10T01:55:11;11.70;;;10.47;;
18162;SDS011;9206;50.994;4.538;2023-05-10T01:58:22;16.87;;;11.70;;
18162;SDS011;9206;50.994;4.538;2023-05-10T02:01:17;14.23;;;11.37;;
18162;SDS011;9206;50.994;4.538;2023-05-10T02:04:08;16.27;;;11.23;;
18162;SDS011;9206;50.994;4.538;2023-05-10T02:06:58;16.37;;;10.70;;
18162;SDS011;9206;50.994;4.538;2023-05-10T02:09:54;14.73;;;11.07;;
18162;SDS011;9206;50.994;4.538;2023-05-10T02:12:48;18.53;;;12.73;;
18162;SDS011;9206;50.994;4.538;2023-05-10T02:15:38;18.77;;;11.83;;
18162;SDS011;9206;50.994;4.538;2023-05-10T02:18:27;15.17;;;12.77;;
18162;SDS011;9206;50.994;4.538;2023-05-10T02:21:17;22.73;;;12.53;;
18162;SDS011;9206;50.994;4.538;2023-05-10T02:24:19;21.70;;;13.20;;
18162;SDS011;9206;50.994;4.538;2023-05-10T02:27:10;21.70;;;12.97;;
18162;SDS011;9206;50.994;4.538;2023-05-10T02:30:00;19.07;;;13.57;;
18162;SDS011;9206;50.994;4.538;2023-05-10T02:32:48;20.53;;;12.60;;
18162;SDS011;9206;50.994;4.538;2023-05-10T02:35:37;21.87;;;13.23;;
18162;SDS011;9206;50.994;4.538;2023-05-10T02:38:26;21.27;;;13.30;;
18162;SDS011;9206;50.994;4.538;2023-05-10T02:41:15;22.77;;;13.57;;
18162;SDS011;9206;50.994;4.538;2023-05-10T02:44:04;19.53;;;13.27;;
18162;SDS011;9206;50.994;4.538;2023-05-10T02:46:54;16.73;;;12.57;;
18162;SDS011;9206;50.994;4.538;2023-05-10T02:49:42;20.90;;;12.73;;
18162;SDS011;9206;50.994;4.538;2023-05-10T02:52:36;15.93;;;12.77;;
18162;SDS011;9206;50.994;4.538;2023-05-10T02:58:43;20.03;;;13.33;;
18162;SDS011;9206;50.994;4.538;2023-05-10T03:01:31;18.17;;;12.40;;
18162;SDS011;9206;50.994;4.538;2023-05-10T03:04:19;21.97;;;14.27;;
18162;SDS011;9206;50.994;4.538;2023-05-10T03:07:07;19.70;;;12.70;;
18162;SDS011;9206;50.994;4.538;2023-05-10T03:09:55;22.03;;;13.00;;
18162;SDS011;9206;50.994;4.538;2023-05-10T03:12:47;19.93;;;14.23;;
18162;SDS011;9206;50.994;4.538;2023-05-10T03:16:04;20.67;;;14.67;;
18162;SDS011;9206;50.994;4.538;2023-05-10T03:19:27;26.07;;;15.93;;
18162;SDS011;9206;50.994;4.538;2023-05-10T03:22:21;23.53;;;15.83;;
18162;SDS011;9206;50.994;4.538;2023-05-10T03:25:31;24.07;;;14.87;;
18162;SDS011;9206;50.994;4.538;2023-05-10T03:28:20;25.63;;;16.17;;
18162;SDS011;9206;50.994;4.538;2023-05-10T03:31:09;26.37;;;17.90;;
18162;SDS011;9206;50.994;4.538;2023-05-10T03:33:57;27.80;;;17.27;;
18162;SDS011;9206;50.994;4.538;2023-05-10T03:36:44;29.07;;;18.13;;
18162;SDS011;9206;50.994;4.538;2023-05-10T03:39:32;34.33;;;20.00;;
18162;SDS011;9206;50.994;4.538;2023-05-10T03:42:20;27.43;;;18.23;;
18162;SDS011;9206;50.994;4.538;2023-05-10T03:45:08;28.67;;;19.60;;
18162;SDS011;9206;50.994;4.538;2023-05-10T03:51:08;33.67;;;19.67;;
18162;SDS011;9206;50.994;4.538;2023-05-10T03:53:55;34.07;;;20.77;;
18162;SDS011;9206;50.994;4.538;2023-05-10T03:56:43;35.00;;;20.13;;
18162;SDS011;9206;50.994;4.538;2023-05-10T03:59:32;31.57;;;20.20;;
18162;SDS011;9206;50.994;4.538;2023-05-10T04:02:19;32.43;;;19.27;;
18162;SDS011;9206;50.994;4.538;2023-05-10T04:05:07;39.27;;;20.27;;
18162;SDS011;9206;50.994;4.538;2023-05-10T04:07:57;34.17;;;19.17;;
18162;SDS011;9206;50.994;4.538;2023-05-10T04:11:04;31.97;;;19.43;;
18162;SDS011;9206;50.994;4.538;2023-05-10T04:13:58;33.20;;;18.67;;
18162;SDS011;9206;50.994;4.538;2023-05-10T04:16:46;37.03;;;20.50;;
18162;SDS011;9206;50.994;4.538;2023-05-10T04:19:44;37.73;;;20.87;;
18162;SDS011;9206;50.994;4.538;2023-05-10T04:22:41;40.83;;;22.10;;
18162;SDS011;9206;50.994;4.538;2023-05-10T04:25:35;36.17;;;20.17;;
18162;SDS011;9206;50.994;4.538;2023-05-10T04:28:22;34.37;;;19.53;;
18162;SDS011;9206;50.994;4.538;2023-05-10T04:31:10;41.40;;;21.90;;
18162;SDS011;9206;50.994;4.538;2023-05-10T04:33:59;38.43;;;22.37;;
18162;SDS011;9206;50.994;4.538;2023-05-10T04:36:47;45.80;;;24.87;;
18162;SDS011;9206;50.994;4.538;2023-05-10T04:39:35;47.20;;;24.80;;
18162;SDS011;9206;50.994;4.538;2023-05-10T04:42:27;49.00;;;24.50;;
18162;SDS011;9206;50.994;4.538;2023-05-10T04:45:32;43.30;;;23.53;;
18162;SDS011;9206;50.994;4.538;2023-05-10T04:48:19;47.30;;;24.33;;
18162;SDS011;9206;50.994;4.538;2023-05-10T04:53:42;43.20;;;24.00;;
18162;SDS011;9206;50.994;4.538;2023-05-10T04:56:30;40.43;;;22.33;;
18162;SDS011;9206;50.994;4.538;2023-05-10T04:59:19;39.17;;;23.13;;
18162;SDS011;9206;50.994;4.538;2023-05-10T05:02:06;41.83;;;22.53;;
18162;SDS011;9206;50.994;4.538;2023-05-10T05:05:19;38.63;;;21.37;;
18162;SDS011;9206;50.994;4.538;2023-05-10T05:08:09;42.40;;;22.80;;
18162;SDS011;9206;50.994;4.538;2023-05-10T05:11:04;44.43;;;22.67;;
18162;SDS011;9206;50.994;4.538;2023-05-10T05:14:11;36.10;;;22.00;;
18162;SDS011;9206;50.994;4.538;2023-05-10T05:17:28;39.37;;;22.27;;
18162;SDS011;9206;50.994;4.538;2023-05-10T05:20:18;32.93;;;19.97;;
18162;SDS011;9206;50.994;4.538;2023-05-10T05:26:02;33.90;;;20.63;;
18162;SDS011;9206;50.994;4.538;2023-05-10T05:28:55;32.87;;;20.33;;
18162;SDS011;9206;50.994;4.538;2023-05-10T05:31:48;38.33;;;21.87;;
18162;SDS011;9206;50.994;4.538;2023-05-10T05:34:47;31.03;;;20.33;;
18162;SDS011;9206;50.994;4.538;2023-05-10T05:41:09;34.20;;;20.73;;
18162;SDS011;9206;50.994;4.538;2023-05-10T05:44:09;28.93;;;20.63;;
18162;SDS011;9206;50.994;4.538;2023-05-10T05:47:09;28.10;;;20.17;;
18162;SDS011;9206;50.994;4.538;2023-05-10T05:57:20;30.73;;;19.53;;
18162;SDS011;9206;50.994;4.538;2023-05-10T06:03:51;30.53;;;19.93;;
18162;SDS011;9206;50.994;4.538;2023-05-10T06:09:29;31.70;;;20.23;;
18162;SDS011;9206;50.994;4.538;2023-05-10T06:12:16;29.50;;;19.70;;
18162;SDS011;9206;50.994;4.538;2023-05-10T06:15:16;27.63;;;19.33;;
18162;SDS011;9206;50.994;4.538;2023-05-10T06:21:46;26.73;;;18.07;;
18162;SDS011;9206;50.994;4.538;2023-05-10T06:38:14;24.93;;;18.20;;
18162;SDS011;9206;50.994;4.538;2023-05-10T06:41:13;21.93;;;17.40;;
18162;SDS011;9206;50.994;4.538;2023-05-10T06:44:04;20.93;;;16.40;;
18162;SDS011;9206;50.994;4.538;2023-05-10T06:50:04;21.83;;;16.57;;
18162;SDS011;9206;50.994;4.538;2023-05-10T06:53:00;23.13;;;17.50;;
18162;SDS011;9206;50.994;4.538;2023-05-10T06:56:17;22.13;;;16.53;;
18162;SDS011;9206;50.994;4.538;2023-05-10T06:59:12;19.80;;;16.80;;
18162;SDS011;9206;50.994;4.538;2023-05-10T07:02:07;20.30;;;16.10;;
18162;SDS011;9206;50.994;4.538;2023-05-10T07:04:56;17.47;;;15.53;;
18162;SDS011;9206;50.994;4.538;2023-05-10T07:11:22;20.33;;;14.53;;
18162;SDS011;9206;50.994;4.538;2023-05-10T07:14:14;22.43;;;14.90;;
18162;SDS011;9206;50.994;4.538;2023-05-10T07:17:04;19.43;;;15.37;;
18162;SDS011;9206;50.994;4.538;2023-05-10T07:19:51;20.73;;;16.03;;
18162;SDS011;9206;50.994;4.538;2023-05-10T07:22:39;20.83;;;16.53;;
18162;SDS011;9206;50.994;4.538;2023-05-10T07:25:41;22.00;;;17.70;;
18162;SDS011;9206;50.994;4.538;2023-05-10T07:28:59;26.60;;;17.00;;
18162;SDS011;9206;50.994;4.538;2023-05-10T07:32:00;25.17;;;18.07;;
18162;SDS011;9206;50.994;4.538;2023-05-10T07:34:49;26.47;;;18.00;;
18162;SDS011;9206;50.994;4.538;2023-05-10T07:37:51;25.90;;;17.43;;
18162;SDS011;9206;50.994;4.538;2023-05-10T07:40:45;27.13;;;19.03;;
18162;SDS011;9206;50.994;4.538;2023-05-10T07:43:36;28.13;;;19.60;;
18162;SDS011;9206;50.994;4.538;2023-05-10T07:46:34;24.63;;;17.83;;
18162;SDS011;9206;50.994;4.538;2023-05-10T07:52:31;24.50;;;18.33;;
18162;SDS011;9206;50.994;4.538;2023-05-10T07:55:21;30.17;;;19.73;;
18162;SDS011;9206;50.994;4.538;2023-05-10T07:58:09;25.77;;;18.47;;
18162;SDS011;9206;50.994;4.538;2023-05-10T08:03:50;24.30;;;16.67;;
18162;SDS011;9206;50.994;4.538;2023-05-10T08:06:46;24.40;;;17.67;;
18162;SDS011;9206;50.994;4.538;2023-05-10T08:09:34;28.13;;;16.57;;
18162;SDS011;9206;50.994;4.538;2023-05-10T08:30:47;23.23;;;14.87;;
18162;SDS011;9206;50.994;4.538;2023-05-10T08:33:56;20.37;;;14.50;;
18162;SDS011;9206;50.994;4.538;2023-05-10T08:36:45;21.10;;;14.13;;
18162;SDS011;9206;50.994;4.538;2023-05-10T08:39:34;19.37;;;14.77;;
18162;SDS011;9206;50.994;4.538;2023-05-10T08:42:28;22.53;;;14.77;;
18162;SDS011;9206;50.994;4.538;2023-05-10T08:45:24;23.73;;;14.53;;
18162;SDS011;9206;50.994;4.538;2023-05-10T08:48:17;26.00;;;14.53;;
18162;SDS011;9206;50.994;4.538;2023-05-10T08:51:11;19.77;;;12.73;;
18162;SDS011;9206;50.994;4.538;2023-05-10T08:54:27;12.95;;;11.05;;
18162;SDS011;9206;50.994;4.538;2023-05-10T08:57:16;15.77;;;11.38;;
18162;SDS011;9206;50.994;4.538;2023-05-10T09:00:06;21.48;;;11.75;;
18162;SDS011;9206;50.994;4.538;2023-05-10T09:02:57;20.00;;;9.97;;
18162;SDS011;9206;50.994;4.538;2023-05-10T09:08:40;17.70;;;10.60;;
18162;SDS011;9206;50.994;4.538;2023-05-10T09:11:33;16.60;;;10.40;;
18162;SDS011;9206;50.994;4.538;2023-05-10T09:14:28;20.73;;;10.57;;
18162;SDS011;9206;50.994;4.538;2023-05-10T09:17:19;16.10;;;10.10;;
18162;SDS011;9206;50.994;4.538;2023-05-10T09:20:10;15.37;;;10.17;;
18162;SDS011;9206;50.994;4.538;2023-05-10T09:26:01;14.90;;;9.60;;
18162;SDS011;9206;50.994;4.538;2023-05-10T09:29:00;15.80;;;10.80;;
18162;SDS011;9206;50.994;4.538;2023-05-10T09:31:51;11.43;;;9.67;;
18162;SDS011;9206;50.994;4.538;2023-05-10T09:34:53;15.67;;;10.60;;
18162;SDS011;9206;50.994;4.538;2023-05-10T09:37:45;17.67;;;10.07;;
18162;SDS011;9206;50.994;4.538;2023-05-10T09:40:35;18.10;;;10.37;;
18162;SDS011;9206;50.994;4.538;2023-05-10T09:43:37;11.30;;;9.13;;
18162;SDS011;9206;50.994;4.538;2023-05-10T09:49:25;11.43;;;9.30;;
18162;SDS011;9206;50.994;4.538;2023-05-10T09:52:14;12.03;;;9.40;;
18162;SDS011;9206;50.994;4.538;2023-05-10T09:55:04;13.33;;;9.47;;
18162;SDS011;9206;50.994;4.538;2023-05-10T09:57:58;10.60;;;9.53;;
18162;SDS011;9206;50.994;4.538;2023-05-10T10:00:48;10.63;;;9.33;;
18162;SDS011;9206;50.994;4.538;2023-05-10T10:03:42;9.07;;;8.10;;
18162;SDS011;9206;50.994;4.538;2023-05-10T10:06:34;10.40;;;9.23;;
18162;SDS011;9206;50.994;4.538;2023-05-10T10:09:27;11.20;;;9.10;;
18162;SDS011;9206;50.994;4.538;2023-05-10T10:12:18;9.33;;;8.43;;
18162;SDS011;9206;50.994;4.538;2023-05-10T10:15:07;10.60;;;9.10;;
18162;SDS011;9206;50.994;4.538;2023-05-10T10:17:58;9.63;;;8.73;;
18162;SDS011;9206;50.994;4.538;2023-05-10T10:21:01;9.10;;;8.27;;
18162;SDS011;9206;50.994;4.538;2023-05-10T10:23:52;8.70;;;7.87;;
18162;SDS011;9206;50.994;4.538;2023-05-10T10:26:51;9.10;;;7.53;;
18162;SDS011;9206;50.994;4.538;2023-05-10T10:29:50;8.33;;;7.57;;
18162;SDS011;9206;50.994;4.538;2023-05-10T10:36:09;9.40;;;8.60;;
18162;SDS011;9206;50.994;4.538;2023-05-10T10:38:59;8.13;;;7.53;;
18162;SDS011;9206;50.994;4.538;2023-05-10T10:44:42;8.23;;;7.43;;
18162;SDS011;9206;50.994;4.538;2023-05-10T10:47:37;8.87;;;7.83;;
18162;SDS011;9206;50.994;4.538;2023-05-10T10:50:30;8.23;;;7.53;;
18162;SDS011;9206;50.994;4.538;2023-05-10T10:53:31;10.97;;;7.17;;
18162;SDS011;9206;50.994;4.538;2023-05-10T10:56:25;7.57;;;7.00;;
18162;SDS011;9206;50.994;4.538;2023-05-10T10:59:26;7.70;;;7.00;;
18162;SDS011;9206;50.994;4.538;2023-05-10T11:05:38;7.27;;;6.67;;
18162;SDS011;9206;50.994;4.538;2023-05-10T11:08:41;8.83;;;7.30;;
18162;SDS011;9206;50.994;4.538;2023-05-10T11:14:22;7.80;;;7.03;;
18162;SDS011;9206;50.994;4.538;2023-05-10T11:17:24;6.80;;;6.20;;
18162;SDS011;9206;50.994;4.538;2023-05-10T11:20:14;7.67;;;6.93;;
18162;SDS011;9206;50.994;4.538;2023-05-10T11:26:06;8.00;;;6.47;;
18162;SDS011;9206;50.994;4.538;2023-05-10T11:31:50;6.70;;;6.10;;
18162;SDS011;9206;50.994;4.538;2023-05-10T11:34:46;6.23;;;5.77;;
18162;SDS011;9206;50.994;4.538;2023-05-10T11:37:37;7.23;;;6.57;;
18162;SDS011;9206;50.994;4.538;2023-05-10T11:40:32;7.03;;;6.37;;
18162;SDS011;9206;50.994;4.538;2023-05-10T11:43:21;6.73;;;6.27;;
18162;SDS011;9206;50.994;4.538;2023-05-10T11:46:22;8.63;;;6.53;;
18162;SDS011;9206;50.994;4.538;2023-05-10T11:49:11;12.73;;;7.27;;
18162;SDS011;9206;50.994;4.538;2023-05-10T11:52:05;6.40;;;6.00;;
18162;SDS011;9206;50.994;4.538;2023-05-10T11:54:53;6.70;;;6.10;;
18162;SDS011;9206;50.994;4.538;2023-05-10T11:57:48;7.70;;;5.90;;
18162;SDS011;9206;50.994;4.538;2023-05-10T12:00:43;6.47;;;5.97;;
18162;SDS011;9206;50.994;4.538;2023-05-10T12:03:34;6.60;;;6.10;;
18162;SDS011;9206;50.994;4.538;2023-05-10T12:06:36;6.60;;;6.10;;
18162;SDS011;9206;50.994;4.538;2023-05-10T12:09:28;6.27;;;5.80;;
18162;SDS011;9206;50.994;4.538;2023-05-10T12:12:26;7.10;;;6.60;;
18162;SDS011;9206;50.994;4.538;2023-05-10T12:15:20;7.57;;;6.20;;
18162;SDS011;9206;50.994;4.538;2023-05-10T12:18:10;7.77;;;6.50;;
18162;SDS011;9206;50.994;4.538;2023-05-10T12:21:03;6.43;;;5.90;;
18162;SDS011;9206;50.994;4.538;2023-05-10T12:23:59;6.50;;;5.88;;
18162;SDS011;9206;50.994;4.538;2023-05-10T12:26:50;7.60;;;5.80;;
18162;SDS011;9206;50.994;4.538;2023-05-10T12:29:41;6.38;;;5.80;;
18162;SDS011;9206;50.994;4.538;2023-05-10T12:32:37;5.78;;;5.38;;
18162;SDS011;9206;50.994;4.538;2023-05-10T12:35:33;5.35;;;5.05;;
18162;SDS011;9206;50.994;4.538;2023-05-10T12:38:46;5.50;;;5.00;;
18162;SDS011;9206;50.994;4.538;2023-05-10T12:41:53;5.47;;;4.97;;
18162;SDS011;9206;50.994;4.538;2023-05-10T12:44:46;5.95;;;5.50;;
18162;SDS011;9206;50.994;4.538;2023-05-10T12:47:40;6.00;;;5.65;;
18162;SDS011;9206;50.994;4.538;2023-05-10T12:50:27;5.85;;;5.32;;
18162;SDS011;9206;50.994;4.538;2023-05-10T12:53:22;6.55;;;5.88;;
18162;SDS011;9206;50.994;4.538;2023-05-10T12:56:10;6.45;;;5.95;;
18162;SDS011;9206;50.994;4.538;2023-05-10T12:58:58;6.20;;;5.80;;
18162;SDS011;9206;50.994;4.538;2023-05-10T13:01:45;7.82;;;5.93;;
18162;SDS011;9206;50.994;4.538;2023-05-10T13:04:35;6.75;;;6.15;;
18162;SDS011;9206;50.994;4.538;2023-05-10T13:07:25;10.35;;;6.15;;
18162;SDS011;9206;50.994;4.538;2023-05-10T13:10:19;6.00;;;5.40;;
18162;SDS011;9206;50.994;4.538;2023-05-10T13:13:12;7.70;;;6.20;;
18162;SDS011;9206;50.994;4.538;2023-05-10T13:21:40;5.22;;;4.82;;
18162;SDS011;9206;50.994;4.538;2023-05-10T13:24:30;5.47;;;4.53;;
18162;SDS011;9206;50.994;4.538;2023-05-10T13:27:19;6.10;;;5.18;;
18162;SDS011;9206;50.994;4.538;2023-05-10T13:30:07;5.32;;;4.97;;
18162;SDS011;9206;50.994;4.538;2023-05-10T13:32:56;7.38;;;6.35;;
18162;SDS011;9206;50.994;4.538;2023-05-10T13:35:44;5.57;;;5.07;;
18162;SDS011;9206;50.994;4.538;2023-05-10T13:38:31;5.55;;;5.15;;
18162;SDS011;9206;50.994;4.538;2023-05-10T13:41:22;5.90;;;5.50;;
18162;SDS011;9206;50.994;4.538;2023-05-10T13:44:13;5.85;;;5.35;;
18162;SDS011;9206;50.994;4.538;2023-05-10T13:47:02;6.05;;;5.55;;
18162;SDS011;9206;50.994;4.538;2023-05-10T13:49:55;6.28;;;5.70;;
18162;SDS011;9206;50.994;4.538;2023-05-10T13:52:44;5.93;;;5.35;;
18162;SDS011;9206;50.994;4.538;2023-05-10T13:58:28;9.73;;;6.00;;
18162;SDS011;9206;50.994;4.538;2023-05-10T14:01:22;6.40;;;5.72;;
18162;SDS011;9206;50.994;4.538;2023-05-10T14:04:10;7.25;;;5.88;;
18162;SDS011;9206;50.994;4.538;2023-05-10T14:06:58;10.82;;;5.32;;
18162;SDS011;9206;50.994;4.538;2023-05-10T14:09:49;7.65;;;5.68;;
18162;SDS011;9206;50.994;4.538;2023-05-10T14:12:36;6.25;;;5.75;;
18162;SDS011;9206;50.994;4.538;2023-05-10T14:15:30;9.52;;;6.60;;
18162;SDS011;9206;50.994;4.538;2023-05-10T14:18:24;7.25;;;6.50;;
18162;SDS011;9206;50.994;4.538;2023-05-10T14:21:27;6.78;;;6.10;;
18162;SDS011;9206;50.994;4.538;2023-05-10T14:24:15;7.43;;;6.50;;
18162;SDS011;9206;50.994;4.538;2023-05-10T14:27:03;7.20;;;6.28;;
18162;SDS011;9206;50.994;4.538;2023-05-10T14:29:54;6.95;;;6.00;;
18162;SDS011;9206;50.994;4.538;2023-05-10T14:32:47;7.75;;;7.13;;
18162;SDS011;9206;50.994;4.538;2023-05-10T14:35:37;8.30;;;7.50;;
18162;SDS011;9206;50.994;4.538;2023-05-10T14:38:31;10.65;;;9.45;;
18162;SDS011;9206;50.994;4.538;2023-05-10T14:41:24;10.43;;;7.63;;
18162;SDS011;9206;50.994;4.538;2023-05-10T14:44:19;11.75;;;9.55;;
18162;SDS011;9206;50.994;4.538;2023-05-10T14:47:08;11.07;;;10.13;;
18162;SDS011;9206;50.994;4.538;2023-05-10T14:52:48;10.07;;;9.27;;
18162;SDS011;9206;50.994;4.538;2023-05-10T14:55:36;9.88;;;8.75;;
18162;SDS011;9206;50.994;4.538;2023-05-10T14:58:28;9.85;;;8.93;;
18162;SDS011;9206;50.994;4.538;2023-05-10T15:01:22;9.48;;;8.75;;
18162;SDS011;9206;50.994;4.538;2023-05-10T15:04:11;10.27;;;9.32;;
18162;SDS011;9206;50.994;4.538;2023-05-10T15:07:10;10.48;;;8.68;;
18162;SDS011;9206;50.994;4.538;2023-05-10T15:10:06;11.13;;;9.07;;
18162;SDS011;9206;50.994;4.538;2023-05-10T15:13:01;10.38;;;9.30;;
18162;SDS011;9206;50.994;4.538;2023-05-10T15:15:48;16.30;;;10.77;;
18162;SDS011;9206;50.994;4.538;2023-05-10T15:18:39;12.75;;;8.27;;
18162;SDS011;9206;50.994;4.538;2023-05-10T15:21:28;7.72;;;6.70;;
18162;SDS011;9206;50.994;4.538;2023-05-10T15:24:21;6.90;;;6.30;;
18162;SDS011;9206;50.994;4.538;2023-05-10T15:27:11;8.00;;;6.43;;
18162;SDS011;9206;50.994;4.538;2023-05-10T15:29:58;9.63;;;7.63;;
18162;SDS011;9206;50.994;4.538;2023-05-10T15:32:46;10.55;;;7.30;;
18162;SDS011;9206;50.994;4.538;2023-05-10T15:35:33;9.52;;;6.97;;
18162;SDS011;9206;50.994;4.538;2023-05-10T15:38:30;7.40;;;6.88;;
18162;SDS011;9206;50.994;4.538;2023-05-10T15:41:19;8.43;;;7.35;;
18162;SDS011;9206;50.994;4.538;2023-05-10T15:44:08;7.85;;;7.25;;
18162;SDS011;9206;50.994;4.538;2023-05-10T15:46:57;8.40;;;7.30;;
18162;SDS011;9206;50.994;4.538;2023-05-10T15:49:46;8.45;;;7.63;;
18162;SDS011;9206;50.994;4.538;2023-05-10T15:52:40;8.27;;;7.00;;
18162;SDS011;9206;50.994;4.538;2023-05-10T15:55:27;10.30;;;7.72;;
18162;SDS011;9206;50.994;4.538;2023-05-10T15:58:15;11.85;;;8.27;;
18162;SDS011;9206;50.994;4.538;2023-05-10T16:01:07;7.78;;;6.95;;
18162;SDS011;9206;50.994;4.538;2023-05-10T16:04:03;10.57;;;7.75;;
18162;SDS011;9206;50.994;4.538;2023-05-10T16:06:51;8.45;;;7.25;;
18162;SDS011;9206;50.994;4.538;2023-05-10T16:12:33;10.27;;;7.00;;
18162;SDS011;9206;50.994;4.538;2023-05-10T16:15:24;10.43;;;7.60;;
18162;SDS011;9206;50.994;4.538;2023-05-10T16:18:14;7.80;;;7.10;;
18162;SDS011;9206;50.994;4.538;2023-05-10T16:23:52;8.90;;;8.00;;
18162;SDS011;9206;50.994;4.538;2023-05-10T16:26:40;7.10;;;6.32;;
18162;SDS011;9206;50.994;4.538;2023-05-10T16:29:28;6.10;;;5.50;;
18162;SDS011;9206;50.994;4.538;2023-05-10T16:32:22;6.50;;;5.87;;
18162;SDS011;9206;50.994;4.538;2023-05-10T16:35:14;6.30;;;5.70;;
18162;SDS011;9206;50.994;4.538;2023-05-10T16:38:01;6.20;;;5.70;;
18162;SDS011;9206;50.994;4.538;2023-05-10T16:40:51;8.60;;;7.27;;
18162;SDS011;9206;50.994;4.538;2023-05-10T16:43:41;8.40;;;7.63;;
18162;SDS011;9206;50.994;4.538;2023-05-10T16:46:30;8.53;;;7.73;;
18162;SDS011;9206;50.994;4.538;2023-05-10T16:49:18;11.52;;;8.70;;
18162;SDS011;9206;50.994;4.538;2023-05-10T16:52:10;8.93;;;7.43;;
18162;SDS011;9206;50.994;4.538;2023-05-10T16:54:58;7.37;;;6.60;;
18162;SDS011;9206;50.994;4.538;2023-05-10T16:57:46;7.23;;;6.53;;
18162;SDS011;9206;50.994;4.538;2023-05-10T17:00:34;11.23;;;6.80;;
18162;SDS011;9206;50.994;4.538;2023-05-10T17:03:28;8.30;;;6.80;;
18162;SDS011;9206;50.994;4.538;2023-05-10T17:06:21;7.50;;;5.87;;
18162;SDS011;9206;50.994;4.538;2023-05-10T17:09:12;11.15;;;6.20;;
18162;SDS011;9206;50.994;4.538;2023-05-10T17:12:02;8.10;;;5.68;;
18162;SDS011;9206;50.994;4.538;2023-05-10T17:14:55;5.17;;;4.77;;
18162;SDS011;9206;50.994;4.538;2023-05-10T17:17:46;5.10;;;4.67;;
18162;SDS011;9206;50.994;4.538;2023-05-10T17:20:42;5.03;;;4.53;;
18162;SDS011;9206;50.994;4.538;2023-05-10T17:23:30;5.17;;;4.63;;
18162;SDS011;9206;50.994;4.538;2023-05-10T17:29:11;8.90;;;5.27;;
18162;SDS011;9206;50.994;4.538;2023-05-10T17:34:53;7.17;;;5.07;;
18162;SDS011;9206;50.994;4.538;2023-05-10T17:40:32;5.70;;;5.10;;
18162;SDS011;9206;50.994;4.538;2023-05-10T17:43:21;5.73;;;4.67;;
18162;SDS011;9206;50.994;4.538;2023-05-10T17:46:12;6.53;;;4.80;;
18162;SDS011;9206;50.994;4.538;2023-05-10T17:49:02;4.93;;;4.53;;
18162;SDS011;9206;50.994;4.538;2023-05-10T17:57:31;14.10;;;5.77;;
18162;SDS011;9206;50.994;4.538;2023-05-10T18:00:26;11.13;;;5.63;;
18162;SDS011;9206;50.994;4.538;2023-05-10T18:03:19;6.23;;;5.70;;
18162;SDS011;9206;50.994;4.538;2023-05-10T18:06:13;6.90;;;5.20;;
18162;SDS011;9206;50.994;4.538;2023-05-10T18:09:02;10.10;;;5.90;;
18162;SDS011;9206;50.994;4.538;2023-05-10T18:11:57;7.33;;;5.93;;
18162;SDS011;9206;50.994;4.538;2023-05-10T18:14:50;7.43;;;4.97;;
18162;SDS011;9206;50.994;4.538;2023-05-10T18:17:40;9.17;;;6.20;;
18162;SDS011;9206;50.994;4.538;2023-05-10T18:20:34;8.40;;;6.07;;
18162;SDS011;9206;50.994;4.538;2023-05-10T18:23:22;9.03;;;5.70;;
18162;SDS011;9206;50.994;4.538;2023-05-10T18:26:11;7.70;;;5.60;;
18162;SDS011;9206;50.994;4.538;2023-05-10T18:29:07;8.53;;;5.57;;
18162;SDS011;9206;50.994;4.538;2023-05-10T18:31:55;6.80;;;6.10;;
18162;SDS011;9206;50.994;4.538;2023-05-10T18:34:43;11.33;;;6.40;;
18162;SDS011;9206;50.994;4.538;2023-05-10T18:37:37;6.43;;;5.83;;
18162;SDS011;9206;50.994;4.538;2023-05-10T18:40:25;6.43;;;5.80;;
18162;SDS011;9206;50.994;4.538;2023-05-10T18:43:15;11.80;;;6.60;;
18162;SDS011;9206;50.994;4.538;2023-05-10T18:46:09;10.93;;;6.83;;
18162;SDS011;9206;50.994;4.538;2023-05-10T18:49:02;12.97;;;7.07;;
18162;SDS011;9206;50.994;4.538;2023-05-10T18:51:58;10.63;;;7.17;;
18162;SDS011;9206;50.994;4.538;2023-05-10T18:54:48;11.87;;;7.30;;
18162;SDS011;9206;50.994;4.538;2023-05-10T18:57:38;12.27;;;7.43;;
18162;SDS011;9206;50.994;4.538;2023-05-10T19:00:32;14.07;;;7.37;;
18162;SDS011;9206;50.994;4.538;2023-05-10T19:03:22;9.50;;;7.40;;
18162;SDS011;9206;50.994;4.538;2023-05-10T19:06:15;10.53;;;7.00;;
18162;SDS011;9206;50.994;4.538;2023-05-10T19:11:55;14.40;;;7.20;;
18162;SDS011;9206;50.994;4.538;2023-05-10T19:14:44;10.53;;;7.60;;
18162;SDS011;9206;50.994;4.538;2023-05-10T19:17:31;13.03;;;7.67;;
18162;SDS011;9206;50.994;4.538;2023-05-10T19:20:20;13.33;;;8.10;;
18162;SDS011;9206;50.994;4.538;2023-05-10T19:23:14;12.13;;;8.20;;
18162;SDS011;9206;50.994;4.538;2023-05-10T19:26:02;15.10;;;8.17;;
18162;SDS011;9206;50.994;4.538;2023-05-10T19:28:51;10.77;;;6.97;;
18162;SDS011;9206;50.994;4.538;2023-05-10T19:31:42;20.63;;;8.33;;
18162;SDS011;9206;50.994;4.538;2023-05-10T19:34:32;12.57;;;7.37;;
18162;SDS011;9206;50.994;4.538;2023-05-10T19:37:23;16.13;;;7.80;;
18162;SDS011;9206;50.994;4.538;2023-05-10T19:40:17;12.33;;;8.37;;
18162;SDS011;9206;50.994;4.538;2023-05-10T19:43:07;17.20;;;9.80;;
18162;SDS011;9206;50.994;4.538;2023-05-10T19:45:56;10.33;;;7.73;;
18162;SDS011;9206;50.994;4.538;2023-05-10T19:48:44;13.83;;;8.13;;
18162;SDS011;9206;50.994;4.538;2023-05-10T19:51:37;12.17;;;8.83;;
18162;SDS011;9206;50.994;4.538;2023-05-10T19:54:27;13.30;;;8.27;;
18162;SDS011;9206;50.994;4.538;2023-05-10T19:57:15;14.07;;;9.90;;
18162;SDS011;9206;50.994;4.538;2023-05-10T20:03:00;14.20;;;9.97;;
18162;SDS011;9206;50.994;4.538;2023-05-10T20:05:49;13.47;;;10.07;;
18162;SDS011;9206;50.994;4.538;2023-05-10T20:08:37;12.00;;;8.87;;
18162;SDS011;9206;50.994;4.538;2023-05-10T20:11:24;15.80;;;10.23;;
18162;SDS011;9206;50.994;4.538;2023-05-10T20:14:15;12.83;;;9.77;;
18162;SDS011;9206;50.994;4.538;2023-05-10T20:17:14;13.53;;;9.93;;
18162;SDS011;9206;50.994;4.538;2023-05-10T20:20:02;16.23;;;9.57;;
18162;SDS011;9206;50.994;4.538;2023-05-10T20:22:51;13.20;;;10.60;;
18162;SDS011;9206;50.994;4.538;2023-05-10T20:25:39;16.20;;;10.17;;
18162;SDS011;9206;50.994;4.538;2023-05-10T20:28:33;19.97;;;11.90;;